| time (UTC) | temp F | wind direction | speed MPH | gust MPH | rain 1hr in | rain 24hr in | rain mn in | humidity % | barometer mb |
| 20260508135237 | 72 | 139 | 0.0 | 0.0 | 0.00 | 0.00 | 0.00 | 34 | 1012.2 |
| 20260508134733 | 71 | 337 | 0.0 | 1.0 | 0.00 | 0.00 | 0.00 | 34 | 1012.2 |
| 20260508134230 | 70 | 271 | 0.0 | 1.0 | 0.00 | 0.00 | 0.00 | 35 | 1012.2 |
| 20260508133727 | 68 | 238 | 1.0 | 2.0 | 0.00 | 0.00 | 0.00 | 39 | 1012.3 |
| 20260508133225 | 68 | 355 | 0.0 | 2.0 | 0.00 | 0.00 | 0.00 | 37 | 1012.1 |
| 20260508132722 | 67 | 324 | 0.0 | 0.0 | 0.00 | 0.00 | 0.00 | 38 | 1012.0 |
| 20260508132220 | 66 | 250 | 0.0 | 2.0 | 0.00 | 0.00 | 0.00 | 38 | 1011.7 |
| 20260508131715 | 65 | 269 | 0.0 | 2.0 | 0.00 | 0.00 | 0.00 | 40 | 1011.8 |
| 20260508131212 | 65 | 296 | 0.0 | 1.0 | 0.00 | 0.00 | 0.00 | 37 | 1011.5 |
| 20260508130708 | 65 | 276 | 0.0 | 2.0 | 0.00 | 0.00 | 0.00 | 38 | 1011.6 |
| 20260508130206 | 65 | 314 | 0.0 | 1.0 | 0.00 | 0.00 | 0.00 | 37 | 1011.5 |
| 20260508125701 | 65 | 335 | 0.0 | 1.0 | 0.00 | 0.00 | 0.00 | 38 | 1011.3 |
| 20260508125157 | 64 | 309 | 0.0 | 1.0 | 0.00 | 0.00 | 0.00 | 39 | 1011.4 |
| 20260508124656 | 65 | 306 | 2.0 | 2.0 | 0.00 | 0.00 | 0.00 | 38 | 1011.2 |
| 20260508124152 | 65 | 284 | 0.0 | 2.0 | 0.00 | 0.00 | 0.00 | 37 | 1011.2 |
| 20260508123651 | 65 | 238 | 0.0 | 2.0 | 0.00 | 0.00 | 0.00 | 36 | 1011.3 |
| 20260508123149 | 65 | 284 | 0.0 | 2.0 | 0.00 | 0.00 | 0.00 | 36 | 1011.2 |
| 20260508122644 | 66 | 278 | 0.0 | 1.0 | 0.00 | 0.00 | 0.00 | 39 | 1011.3 |
| 20260508122141 | 66 | 301 | 0.0 | 1.0 | 0.00 | 0.00 | 0.00 | 37 | 1010.9 |
| 20260508121639 | 66 | 330 | 0.0 | 1.0 | 0.00 | 0.00 | 0.00 | 35 | 1011.0 |
| 20260508121137 | 67 | 272 | 0.0 | 1.0 | 0.00 | 0.00 | 0.00 | 34 | 1011.0 |
| 20260508120634 | 67 | 247 | 1.0 | 1.0 | 0.00 | 0.00 | 0.00 | 35 | 1011.0 |
| 20260508120133 | 67 | 81 | 0.0 | 0.0 | 0.00 | 0.00 | 0.00 | 33 | 1011.0 |
| 20260508115630 | 68 | 324 | 0.0 | 1.0 | 0.00 | 0.00 | 0.00 | 32 | 1010.8 |
| 20260508115127 | 68 | 277 | 0.0 | 2.0 | 0.00 | 0.00 | 0.00 | 31 | 1011.0 |
| 20260508114624 | 69 | 245 | 0.0 | 0.0 | 0.00 | 0.00 | 0.00 | 31 | 1011.0 |
| 20260508114119 | 69 | 324 | 0.0 | 0.0 | 0.00 | 0.00 | 0.00 | 31 | 1010.9 |
| 20260508113617 | 69 | 245 | 0.0 | 0.0 | 0.00 | 0.00 | 0.00 | 30 | 1010.8 |
| 20260508113115 | 70 | 264 | 0.0 | 2.0 | 0.00 | 0.00 | 0.00 | 29 | 1010.8 |
| 20260508112611 | 71 | 254 | 0.0 | 0.0 | 0.00 | 0.00 | 0.00 | 30 | 1010.9 |
| 20260508112108 | 71 | 280 | 3.0 | 3.0 | 0.00 | 0.00 | 0.00 | 29 | 1010.7 |
| 20260508111605 | 71 | 261 | 1.0 | 3.0 | 0.00 | 0.00 | 0.00 | 29 | 1010.5 |
| 20260508111102 | 71 | 262 | 3.0 | 3.0 | 0.00 | 0.00 | 0.00 | 28 | 1010.6 |
| 20260508110600 | 71 | 293 | 0.0 | 1.0 | 0.00 | 0.00 | 0.00 | 28 | 1010.7 |
| 20260508110056 | 72 | 249 | 2.0 | 2.0 | 0.00 | 0.00 | 0.00 | 27 | 1010.5 |
| 20260508105551 | 72 | 281 | 2.0 | 4.0 | 0.00 | 0.00 | 0.00 | 27 | 1010.5 |
| 20260508105048 | 72 | 255 | 2.0 | 3.0 | 0.00 | 0.00 | 0.00 | 26 | 1010.6 |
| 20260508104546 | 72 | 287 | 1.0 | 2.0 | 0.00 | 0.00 | 0.00 | 26 | 1010.7 |
| 20260508104042 | 73 | 267 | 2.0 | 3.0 | 0.00 | 0.00 | 0.00 | 27 | 1010.6 |
| 20260508103539 | 73 | 262 | 0.0 | 1.0 | 0.00 | 0.00 | 0.00 | 27 | 1010.4 |
| 20260508103037 | 73 | 287 | 1.0 | 2.0 | 0.00 | 0.00 | 0.00 | 28 | 1010.5 |
| 20260508102534 | 73 | 250 | 0.0 | 1.0 | 0.00 | 0.00 | 0.00 | 27 | 1010.6 |
| 20260508102032 | 73 | 266 | 2.0 | 3.0 | 0.00 | 0.00 | 0.00 | 27 | 1010.5 |
| 20260508101529 | 73 | 312 | 0.0 | 2.0 | 0.00 | 0.00 | 0.00 | 28 | 1010.3 |
| 20260508101026 | 74 | 284 | 0.0 | 1.0 | 0.00 | 0.00 | 0.00 | 28 | 1010.2 |
| 20260508100524 | 74 | 239 | 0.0 | 3.0 | 0.00 | 0.00 | 0.00 | 28 | 1010.4 |
| 20260508100021 | 74 | 275 | 1.0 | 2.0 | 0.00 | 0.00 | 0.00 | 28 | 1010.4 |
| 20260508095518 | 74 | 253 | 1.0 | 3.0 | 0.00 | 0.00 | 0.00 | 27 | 1010.2 |
| 20260508095015 | 74 | 293 | 0.0 | 2.0 | 0.00 | 0.00 | 0.00 | 27 | 1010.3 |
| 20260508094512 | 74 | 284 | 2.0 | 3.0 | 0.00 | 0.00 | 0.00 | 26 | 1010.3 |
| 20260508094009 | 75 | 269 | 2.0 | 3.0 | 0.00 | 0.00 | 0.00 | 26 | 1010.1 |
| 20260508093506 | 74 | 254 | 2.0 | 3.0 | 0.00 | 0.00 | 0.00 | 26 | 1010.2 |
| 20260508093004 | 73 | 268 | 2.0 | 2.0 | 0.00 | 0.00 | 0.00 | 26 | 1010.2 |
| 20260508092501 | 73 | 284 | 0.0 | 1.0 | 0.00 | 0.00 | 0.00 | 25 | 1010.3 |
| 20260508092000 | 74 | 251 | 0.0 | 2.0 | 0.00 | 0.00 | 0.00 | 25 | 1010.2 |
| 20260508091456 | 74 | 284 | 0.0 | 0.0 | 0.00 | 0.00 | 0.00 | 25 | 1010.0 |
| 20260508090953 | 75 | 270 | 1.0 | 2.0 | 0.00 | 0.00 | 0.00 | 24 | 1010.1 |
| 20260508090452 | 75 | 269 | 2.0 | 3.0 | 0.00 | 0.00 | 0.00 | 25 | 1010.0 |
| 20260508085947 | 75 | 273 | 2.0 | 3.0 | 0.00 | 0.00 | 0.00 | 26 | 1010.0 |
| 20260508085444 | 75 | 249 | 2.0 | 2.0 | 0.00 | 0.00 | 0.00 | 26 | 1010.0 |
| 20260508084941 | 75 | 279 | 1.0 | 3.0 | 0.00 | 0.00 | 0.00 | 26 | 1010.1 |
| 20260508084437 | 75 | 268 | 0.0 | 1.0 | 0.00 | 0.00 | 0.00 | 26 | 1010.2 |
| 20260508083936 | 74 | 279 | 1.0 | 1.0 | 0.00 | 0.00 | 0.00 | 27 | 1010.3 |
| 20260508083432 | 74 | 261 | 0.0 | 1.0 | 0.00 | 0.00 | 0.00 | 26 | 1010.3 |
| 20260508082932 | 74 | 257 | 0.0 | 1.0 | 0.00 | 0.00 | 0.00 | 27 | 1010.2 |
| 20260508082424 | 74 | 284 | 0.0 | 1.0 | 0.00 | 0.00 | 0.00 | 27 | 1010.1 |
| 20260508081922 | 75 | 312 | 0.0 | 0.0 | 0.00 | 0.00 | 0.00 | 26 | 1010.1 |
| 20260508081418 | 75 | 312 | 0.0 | 1.0 | 0.00 | 0.00 | 0.00 | 26 | 1010.1 |
| 20260508080915 | 75 | 289 | 1.0 | 2.0 | 0.00 | 0.00 | 0.00 | 26 | 1010.1 |
| 20260508080413 | 75 | 271 | 1.0 | 2.0 | 0.00 | 0.00 | 0.00 | 26 | 1010.1 |
| 20260508075909 | 75 | 234 | 1.0 | 3.0 | 0.00 | 0.00 | 0.00 | 28 | 1010.2 |
| 20260508075407 | 75 | 247 | 1.0 | 2.0 | 0.00 | 0.00 | 0.00 | 28 | 1010.2 |
| 20260508074904 | 74 | 269 | 1.0 | 1.0 | 0.00 | 0.00 | 0.00 | 27 | 1010.3 |
| 20260508074401 | 74 | 265 | 1.0 | 2.0 | 0.00 | 0.00 | 0.00 | 27 | 1010.1 |
| 20260508073858 | 73 | 256 | 1.0 | 2.0 | 0.00 | 0.00 | 0.00 | 30 | 1009.8 |
| 20260508073356 | 72 | 288 | 1.0 | 2.0 | 0.00 | 0.00 | 0.00 | 31 | 1009.9 |
| 20260508072852 | 72 | 255 | 0.0 | 1.0 | 0.00 | 0.00 | 0.00 | 30 | 1010.2 |
| 20260508072348 | 72 | 330 | 0.0 | 0.0 | 0.00 | 0.00 | 0.00 | 28 | 1009.9 |
| 20260508071846 | 72 | 314 | 0.0 | 0.0 | 0.00 | 0.00 | 0.00 | 26 | 1009.9 |
| 20260508071344 | 72 | 248 | 0.0 | 0.0 | 0.00 | 0.00 | 0.00 | 26 | 1009.7 |
| 20260508070842 | 73 | 284 | 0.0 | 0.0 | 0.00 | 0.00 | 0.00 | 26 | 1009.9 |
| 20260508070339 | 73 | 271 | 0.0 | 0.0 | 0.00 | 0.00 | 0.00 | 25 | 1010.1 |
| 20260508065831 | 73 | 257 | 0.0 | 0.0 | 0.00 | 0.00 | 0.00 | 26 | 1009.8 |
| 20260508065329 | 73 | 312 | 0.0 | 0.0 | 0.00 | 0.00 | 0.00 | 25 | 1009.7 |
| 20260508064827 | 73 | 308 | 0.0 | 0.0 | 0.00 | 0.00 | 0.00 | 25 | 1009.6 |
| 20260508064324 | 73 | 337 | 0.0 | 0.0 | 0.00 | 0.00 | 0.00 | 25 | 1009.6 |
| 20260508063822 | 73 | 330 | 0.0 | 0.0 | 0.00 | 0.00 | 0.00 | 26 | 1009.8 |
| 20260508063320 | 74 | 319 | 0.0 | 0.0 | 0.00 | 0.00 | 0.00 | 24 | 1009.6 |
| 20260508062816 | 74 | 312 | 0.0 | 0.0 | 0.00 | 0.00 | 0.00 | 24 | 1009.9 |
| 20260508062314 | 74 | 337 | 0.0 | 0.0 | 0.00 | 0.00 | 0.00 | 24 | 1009.8 |
| 20260508061810 | 74 | 297 | 0.0 | 1.0 | 0.00 | 0.00 | 0.00 | 24 | 1009.9 |
| 20260508061309 | 75 | 284 | 0.0 | 0.0 | 0.00 | 0.00 | 0.00 | 23 | 1009.9 |
| 20260508060804 | 75 | 262 | 0.0 | 0.0 | 0.00 | 0.00 | 0.00 | 23 | 1009.8 |
| 20260508060303 | 75 | 337 | 0.0 | 0.0 | 0.00 | 0.00 | 0.00 | 23 | 1010.0 |
| 20260508055757 | 75 | 255 | 0.0 | 0.0 | 0.00 | 0.00 | 0.00 | 23 | 1009.8 |
| 20260508055255 | 75 | 324 | 0.0 | 0.0 | 0.00 | 0.00 | 0.00 | 23 | 1009.9 |
| 20260508054751 | 75 | 337 | 0.0 | 0.0 | 0.00 | 0.00 | 0.00 | 25 | 1009.9 |
| 20260508054249 | 76 | 303 | 0.0 | 0.0 | 0.00 | 0.00 | 0.00 | 22 | 1009.9 |
| 20260508053746 | 76 | 297 | 0.0 | 0.0 | 0.00 | 0.00 | 0.00 | 24 | 1009.7 |
| 20260508053243 | 76 | 297 | 0.0 | 0.0 | 0.00 | 0.00 | 0.00 | 22 | 1009.8 |
| 20260508052740 | 76 | 349 | 0.0 | 0.0 | 0.00 | 0.00 | 0.00 | 21 | 1009.9 |
| 20260508052237 | 77 | 284 | 0.0 | 0.0 | 0.00 | 0.00 | 0.00 | 21 | 1009.9 |
| 20260508051733 | 77 | 244 | 0.0 | 0.0 | 0.00 | 0.00 | 0.00 | 20 | 1010.0 |
| 20260508051229 | 77 | 245 | 0.0 | 0.0 | 0.00 | 0.00 | 0.00 | 21 | 1010.1 |
| 20260508050726 | 77 | 70 | 0.0 | 0.0 | 0.00 | 0.00 | 0.00 | 20 | 1009.7 |
| 20260508050223 | 77 | 128 | 0.0 | 0.0 | 0.00 | 0.00 | 0.00 | 20 | 1009.8 |
| 20260508045718 | 77 | 128 | 0.0 | 0.0 | 0.00 | 0.00 | 0.00 | 25 | 1009.9 |
| 20260508045216 | 78 | 77 | 0.0 | 0.0 | 0.00 | 0.00 | 0.00 | 21 | 1009.6 |
| 20260508044713 | 78 | 37 | 0.0 | 0.0 | 0.00 | 0.00 | 0.00 | 20 | 1009.8 |
| 20260508044210 | 78 | 257 | 0.0 | 0.0 | 0.00 | 0.00 | 0.00 | 19 | 1009.7 |
| 20260508043705 | 79 | 52 | 0.0 | 0.0 | 0.00 | 0.00 | 0.00 | 19 | 1009.6 |
| 20260508043204 | 79 | 52 | 0.0 | 0.0 | 0.00 | 0.00 | 0.00 | 20 | 1009.6 |
| 20260508042700 | 80 | 52 | 0.0 | 0.0 | 0.00 | 0.00 | 0.00 | 19 | 1009.6 |
| 20260508042158 | 81 | 52 | 0.0 | 0.0 | 0.00 | 0.00 | 0.00 | 18 | 1009.5 |
| 20260508041654 | 82 | 70 | 0.0 | 0.0 | 0.00 | 0.00 | 0.00 | 18 | 1009.4 |
| 20260508041151 | 82 | 104 | 0.0 | 0.0 | 0.00 | 0.00 | 0.00 | 17 | 1009.3 |
| 20260508040647 | 82 | 104 | 0.0 | 0.0 | 0.00 | 0.00 | 0.00 | 17 | 1009.3 |
| 20260508040144 | 82 | 77 | 0.0 | 0.0 | 0.00 | 0.00 | 0.00 | 17 | 1009.4 |
| 20260508035641 | 83 | 118 | 0.0 | 0.0 | 0.00 | 0.00 | 0.00 | 17 | 1009.1 |
| 20260508035139 | 84 | 144 | 0.0 | 0.0 | 0.00 | 0.00 | 0.00 | 17 | 1009.3 |
| 20260508034636 | 84 | 134 | 0.0 | 1.0 | 0.00 | 0.00 | 0.00 | 17 | 1009.2 |
| 20260508034133 | 85 | 93 | 0.0 | 1.0 | 0.00 | 0.00 | 0.00 | 16 | 1009.1 |
| 20260508033630 | 85 | 82 | 0.0 | 2.0 | 0.00 | 0.00 | 0.00 | 16 | 1009.3 |
| 20260508033129 | 85 | 150 | 0.0 | 1.0 | 0.00 | 0.00 | 0.00 | 16 | 1009.0 |
| 20260508032625 | 85 | 87 | 0.0 | 1.0 | 0.00 | 0.00 | 0.00 | 17 | 1009.2 |
| 20260508032122 | 85 | 104 | 0.0 | 2.0 | 0.00 | 0.00 | 0.00 | 16 | 1008.9 |
| 20260508031619 | 86 | 132 | 0.0 | 2.0 | 0.00 | 0.00 | 0.00 | 16 | 1009.0 |
| 20260508031115 | 86 | 30 | 0.0 | 2.0 | 0.00 | 0.00 | 0.00 | 16 | 1008.7 |
| 20260508030612 | 86 | 93 | 1.0 | 2.0 | 0.00 | 0.00 | 0.00 | 17 | 1008.8 |
| 20260508030110 | 87 | 58 | 0.0 | 2.0 | 0.00 | 0.00 | 0.00 | 16 | 1008.6 |
| 20260508025605 | 87 | 101 | 1.0 | 2.0 | 0.00 | 0.00 | 0.00 | 17 | 1008.6 |
| 20260508025103 | 87 | 91 | 1.0 | 2.0 | 0.00 | 0.00 | 0.00 | 16 | 1008.6 |
| 20260508024558 | 87 | 90 | 1.0 | 3.0 | 0.00 | 0.00 | 0.00 | 17 | 1008.6 |
| 20260508024055 | 88 | 120 | 1.0 | 2.0 | 0.00 | 0.00 | 0.00 | 16 | 1008.5 |
| 20260508023552 | 88 | 66 | 0.0 | 3.0 | 0.00 | 0.00 | 0.00 | 16 | 1008.3 |
| 20260508023050 | 89 | 75 | 2.0 | 4.0 | 0.00 | 0.00 | 0.00 | 16 | 1008.3 |
| 20260508022545 | 89 | 91 | 2.0 | 3.0 | 0.00 | 0.00 | 0.00 | 16 | 1008.3 |
| 20260508022043 | 89 | 75 | 2.0 | 4.0 | 0.00 | 0.00 | 0.00 | 17 | 1008.3 |
| 20260508021538 | 90 | 69 | 1.0 | 5.0 | 0.00 | 0.00 | 0.00 | 16 | 1008.1 |
| 20260508021034 | 90 | 95 | 0.0 | 4.0 | 0.00 | 0.00 | 0.00 | 15 | 1008.1 |
| 20260508020532 | 90 | 86 | 1.0 | 3.0 | 0.00 | 0.00 | 0.00 | 15 | 1008.1 |
| 20260508020030 | 91 | 80 | 0.0 | 2.0 | 0.00 | 0.00 | 0.00 | 15 | 1008.2 |
| 20260508015527 | 92 | 91 | 0.0 | 3.0 | 0.00 | 0.00 | 0.00 | 15 | 1008.0 |
| 20260508015024 | 93 | 75 | 2.0 | 3.0 | 0.00 | 0.00 | 0.00 | 15 | 1008.0 |
| 20260508014521 | 94 | 89 | 3.0 | 4.0 | 0.00 | 0.00 | 0.00 | 14 | 1008.1 |
| 20260508014017 | 93 | 82 | 3.0 | 3.0 | 0.00 | 0.00 | 0.00 | 14 | 1008.0 |
| 20260508013513 | 93 | 81 | 7.0 | 7.0 | 0.00 | 0.00 | 0.00 | 14 | 1008.0 |
| 20260508013010 | 93 | 81 | 2.0 | 7.0 | 0.00 | 0.00 | 0.00 | 13 | 1008.1 |
| 20260508012507 | 94 | 78 | 4.0 | 6.0 | 0.00 | 0.00 | 0.00 | 13 | 1008.1 |
| 20260508012004 | 95 | 80 | 3.0 | 6.0 | 0.00 | 0.00 | 0.00 | 13 | 1007.8 |
| 20260508011502 | 96 | 112 | 3.0 | 4.0 | 0.00 | 0.00 | 0.00 | 13 | 1007.9 |
| 20260508010959 | 97 | 72 | 2.0 | 5.0 | 0.00 | 0.00 | 0.00 | 13 | 1007.9 |
| 20260508010456 | 98 | 79 | 6.0 | 7.0 | 0.00 | 0.00 | 0.00 | 12 | 1007.9 |
| 20260508005954 | 97 | 86 | 3.0 | 6.0 | 0.00 | 0.00 | 0.00 | 13 | 1007.9 |
| 20260508005450 | 97 | 87 | 2.0 | 5.0 | 0.00 | 0.00 | 0.00 | 13 | 1007.9 |
| 20260508004947 | 97 | 89 | 4.0 | 6.0 | 0.00 | 0.00 | 0.00 | 12 | 1007.9 |
| 20260508004443 | 97 | 61 | 2.0 | 5.0 | 0.00 | 0.00 | 0.00 | 13 | 1008.0 |
| 20260508003939 | 97 | 93 | 2.0 | 6.0 | 0.00 | 0.00 | 0.00 | 13 | 1007.8 |
| 20260508003436 | 98 | 122 | 1.0 | 4.0 | 0.00 | 0.00 | 0.00 | 12 | 1008.0 |
| 20260508002933 | 100 | 95 | 3.0 | 5.0 | 0.00 | 0.00 | 0.00 | 12 | 1007.9 |
| 20260508002430 | 99 | 90 | 3.0 | 4.0 | 0.00 | 0.00 | 0.00 | 12 | 1007.9 |
| 20260508001926 | 99 | 90 | 3.0 | 5.0 | 0.00 | 0.00 | 0.00 | 12 | 1008.1 |
| 20260508001423 | 100 | 90 | 4.0 | 5.0 | 0.00 | 0.00 | 0.00 | 12 | 1007.8 |
| 20260508000919 | 100 | 97 | 3.0 | 5.0 | 0.00 | 0.00 | 0.00 | 12 | 1007.9 |
| 20260508000415 | 99 | 85 | 3.0 | 3.0 | 0.00 | 0.00 | 0.00 | 12 | 1008.1 |
| 20260507235912 | 98 | 78 | 3.0 | 3.0 | 0.00 | 0.00 | 0.00 | 12 | 1008.1 |
| 20260507235409 | 98 | 91 | 1.0 | 6.0 | 0.00 | 0.00 | 0.00 | 12 | 1008.0 |
| 20260507234906 | 98 | 99 | 3.0 | 7.0 | 0.00 | 0.00 | 0.00 | 12 | 1008.2 |
| 20260507234403 | 99 | 80 | 3.0 | 5.0 | 0.00 | 0.00 | 0.00 | 12 | 1008.0 |
| 20260507233900 | 102 | 89 | 1.0 | 2.0 | 0.00 | 0.00 | 0.00 | 13 | 1007.8 |
| 20260507233357 | 100 | 59 | 2.0 | 3.0 | 0.00 | 0.00 | 0.00 | 12 | 1008.1 |
| 20260507232855 | 98 | 80 | 2.0 | 4.0 | 0.00 | 0.00 | 0.00 | 12 | 1008.0 |
| 20260507232351 | 99 | 92 | 3.0 | 5.0 | 0.00 | 0.00 | 0.00 | 11 | 1008.1 |
| 20260507231849 | 98 | 91 | 1.0 | 6.0 | 0.00 | 0.00 | 0.00 | 12 | 1008.1 |
| 20260507231345 | 97 | 90 | 4.0 | 8.0 | 0.00 | 0.00 | 0.00 | 12 | 1008.0 |
| 20260507230841 | 97 | 121 | 2.0 | 4.0 | 0.00 | 0.00 | 0.00 | 12 | 1008.2 |
| 20260507230339 | 97 | 83 | 3.0 | 3.0 | 0.00 | 0.00 | 0.00 | 12 | 1008.0 |
| 20260507225838 | 97 | 94 | 0.0 | 5.0 | 0.00 | 0.00 | 0.00 | 13 | 1008.2 |
| 20260507225335 | 98 | 117 | 4.0 | 5.0 | 0.00 | 0.00 | 0.00 | 11 | 1008.3 |
| 20260507224831 | 98 | 34 | 3.0 | 7.0 | 0.00 | 0.00 | 0.00 | 12 | 1008.0 |
| 20260507224328 | 98 | 28 | 2.0 | 5.0 | 0.00 | 0.00 | 0.00 | 12 | 1008.3 |
| 20260507223824 | 98 | 134 | 3.0 | 6.0 | 0.00 | 0.00 | 0.00 | 11 | 1008.2 |
| 20260507223320 | 98 | 59 | 1.0 | 3.0 | 0.00 | 0.00 | 0.00 | 12 | 1008.3 |
| 20260507222818 | 98 | 90 | 2.0 | 4.0 | 0.00 | 0.00 | 0.00 | 12 | 1008.5 |
| 20260507222314 | 99 | 103 | 2.0 | 4.0 | 0.00 | 0.00 | 0.00 | 11 | 1008.3 |
| 20260507221811 | 98 | 87 | 3.0 | 3.0 | 0.00 | 0.00 | 0.00 | 12 | 1008.5 |
| 20260507221307 | 97 | 161 | 1.0 | 5.0 | 0.00 | 0.00 | 0.00 | 12 | 1008.8 |
| 20260507220803 | 96 | 273 | 1.0 | 5.0 | 0.00 | 0.00 | 0.00 | 12 | 1008.9 |
| 20260507220302 | 97 | 38 | 1.0 | 5.0 | 0.00 | 0.00 | 0.00 | 12 | 1008.6 |
| 20260507215758 | 97 | 84 | 2.0 | 5.0 | 0.00 | 0.00 | 0.00 | 12 | 1008.6 |
| 20260507215255 | 97 | 100 | 2.0 | 3.0 | 0.00 | 0.00 | 0.00 | 13 | 1008.6 |
| 20260507214752 | 96 | 83 | 1.0 | 2.0 | 0.00 | 0.00 | 0.00 | 13 | 1009.1 |
| 20260507214250 | 96 | 91 | 2.0 | 5.0 | 0.00 | 0.00 | 0.00 | 11 | 1009.0 |
| 20260507213744 | 96 | 94 | 5.0 | 6.0 | 0.00 | 0.00 | 0.00 | 12 | 1009.0 |
| 20260507213242 | 95 | 108 | 3.0 | 3.0 | 0.00 | 0.00 | 0.00 | 12 | 1009.1 |
| 20260507212738 | 96 | 107 | 7.0 | 7.0 | 0.00 | 0.00 | 0.00 | 12 | 1009.1 |
| 20260507212235 | 94 | 106 | 5.0 | 5.0 | 0.00 | 0.00 | 0.00 | 12 | 1009.4 |
| 20260507211732 | 95 | 259 | 1.0 | 3.0 | 0.00 | 0.00 | 0.00 | 13 | 1009.2 |
| 20260507211228 | 95 | 128 | 2.0 | 2.0 | 0.00 | 0.00 | 0.00 | 12 | 1009.4 |
| 20260507210725 | 95 | 62 | 2.0 | 3.0 | 0.00 | 0.00 | 0.00 | 14 | 1009.5 |
| 20260507210222 | 95 | 156 | 0.0 | 3.0 | 0.00 | 0.00 | 0.00 | 12 | 1009.7 |
| 20260507205718 | 96 | 66 | 2.0 | 3.0 | 0.00 | 0.00 | 0.00 | 12 | 1009.8 |
| 20260507205215 | 95 | 87 | 2.0 | 3.0 | 0.00 | 0.00 | 0.00 | 12 | 1009.8 |
| 20260507204711 | 94 | 92 | 0.0 | 5.0 | 0.00 | 0.00 | 0.00 | 11 | 1010.0 |
| 20260507204209 | 95 | 352 | 1.0 | 3.0 | 0.00 | 0.00 | 0.00 | 12 | 1010.0 |
| 20260507203707 | 95 | 76 | 2.0 | 4.0 | 0.00 | 0.00 | 0.00 | 12 | 1010.0 |
| 20260507203204 | 95 | 114 | 1.0 | 3.0 | 0.00 | 0.00 | 0.00 | 12 | 1010.1 |
| 20260507202700 | 93 | 85 | 1.0 | 3.0 | 0.00 | 0.00 | 0.00 | 13 | 1010.1 |
| 20260507202156 | 92 | 168 | 0.0 | 2.0 | 0.00 | 0.00 | 0.00 | 13 | 1010.2 |
| 20260507201651 | 93 | 108 | 1.0 | 2.0 | 0.00 | 0.00 | 0.00 | 13 | 1010.4 |
| 20260507201148 | 93 | 58 | 1.0 | 2.0 | 0.00 | 0.00 | 0.00 | 14 | 1010.6 |
| 20260507200644 | 92 | 126 | 0.0 | 3.0 | 0.00 | 0.00 | 0.00 | 14 | 1010.6 |
| 20260507200140 | 92 | 75 | 2.0 | 6.0 | 0.00 | 0.00 | 0.00 | 13 | 1010.7 |
| 20260507195637 | 92 | 220 | 1.0 | 2.0 | 0.00 | 0.00 | 0.00 | 14 | 1010.9 |
| 20260507195134 | 93 | 93 | 6.0 | 6.0 | 0.00 | 0.00 | 0.00 | 13 | 1010.9 |
| 20260507194631 | 92 | 87 | 2.0 | 4.0 | 0.00 | 0.00 | 0.00 | 13 | 1010.7 |
| 20260507194126 | 91 | 93 | 3.0 | 5.0 | 0.00 | 0.00 | 0.00 | 13 | 1011.0 |
| 20260507193624 | 91 | 337 | 2.0 | 4.0 | 0.00 | 0.00 | 0.00 | 14 | 1011.2 |
| 20260507193121 | 91 | 106 | 3.0 | 5.0 | 0.00 | 0.00 | 0.00 | 13 | 1011.3 |
| 20260507192617 | 91 | 203 | 1.0 | 4.0 | 0.00 | 0.00 | 0.00 | 14 | 1011.3 |
| 20260507192114 | 92 | 38 | 1.0 | 2.0 | 0.00 | 0.00 | 0.00 | 15 | 1011.5 |
| 20260507191610 | 93 | 143 | 0.0 | 2.0 | 0.00 | 0.00 | 0.00 | 15 | 1011.4 |
| 20260507191107 | 92 | 250 | 0.0 | 1.0 | 0.00 | 0.00 | 0.00 | 14 | 1011.5 |
| 20260507190604 | 91 | 202 | 0.0 | 3.0 | 0.00 | 0.00 | 0.00 | 14 | 1011.7 |
| 20260507185601 | 91 | 89 | 2.0 | 2.0 | 0.00 | 0.00 | 0.00 | 14 | 1011.8 |
| 20260507185057 | 91 | 83 | 2.0 | 3.0 | 0.00 | 0.00 | 0.00 | 13 | 1012.1 |
| 20260507184555 | 91 | 276 | 3.0 | 3.0 | 0.00 | 0.00 | 0.00 | 15 | 1011.8 |
| 20260507184053 | 90 | 111 | 2.0 | 3.0 | 0.00 | 0.00 | 0.00 | 15 | 1011.9 |
| 20260507183548 | 89 | 83 | 3.0 | 3.0 | 0.00 | 0.00 | 0.00 | 14 | 1011.9 |
| 20260507183046 | 89 | 97 | 2.0 | 5.0 | 0.00 | 0.00 | 0.00 | 14 | 1012.1 |
| 20260507182542 | 90 | 120 | 2.0 | 3.0 | 0.00 | 0.00 | 0.00 | 16 | 1012.2 |
| 20260507182038 | 89 | 237 | 0.0 | 3.0 | 0.00 | 0.00 | 0.00 | 14 | 1012.2 |
| 20260507181535 | 89 | 199 | 0.0 | 3.0 | 0.00 | 0.00 | 0.00 | 14 | 1012.4 |
| 20260507181031 | 89 | 291 | 0.0 | 3.0 | 0.00 | 0.00 | 0.00 | 15 | 1012.2 |
| 20260507180527 | 91 | 225 | 0.0 | 3.0 | 0.00 | 0.00 | 0.00 | 13 | 1012.3 |
| 20260507180025 | 90 | 31 | 0.0 | 2.0 | 0.00 | 0.00 | 0.00 | 16 | 1012.5 |
| 20260507175521 | 90 | 67 | 0.0 | 2.0 | 0.00 | 0.00 | 0.00 | 15 | 1012.4 |
| 20260507175019 | 90 | 299 | 0.0 | 3.0 | 0.00 | 0.00 | 0.00 | 14 | 1012.5 |
| 20260507174515 | 89 | 208 | 2.0 | 3.0 | 0.00 | 0.00 | 0.00 | 14 | 1012.6 |
| 20260507174013 | 90 | 136 | 0.0 | 2.0 | 0.00 | 0.00 | 0.00 | 16 | 1012.6 |
| 20260507173510 | 90 | 71 | 0.0 | 4.0 | 0.00 | 0.00 | 0.00 | 15 | 1012.4 |
| 20260507173008 | 90 | 343 | 0.0 | 2.0 | 0.00 | 0.00 | 0.00 | 16 | 1012.8 |
| 20260507172503 | 90 | 81 | 0.0 | 2.0 | 0.00 | 0.00 | 0.00 | 15 | 1012.8 |
| 20260507172000 | 90 | 47 | 1.0 | 3.0 | 0.00 | 0.00 | 0.00 | 15 | 1013.0 |
| 20260507171455 | 89 | 91 | 0.0 | 1.0 | 0.00 | 0.00 | 0.00 | 16 | 1013.0 |
| 20260507170953 | 87 | 231 | 0.0 | 3.0 | 0.00 | 0.00 | 0.00 | 17 | 1012.9 |
| 20260507170450 | 89 | 97 | 2.0 | 2.0 | 0.00 | 0.00 | 0.00 | 17 | 1013.1 |
| 20260507165946 | 88 | 114 | 1.0 | 2.0 | 0.00 | 0.00 | 0.00 | 17 | 1013.1 |
| 20260507165442 | 89 | 352 | 0.0 | 2.0 | 0.00 | 0.00 | 0.00 | 17 | 1012.9 |
| 20260507164938 | 90 | 211 | 2.0 | 2.0 | 0.00 | 0.00 | 0.00 | 17 | 1013.1 |
| 20260507164435 | 88 | 92 | 0.0 | 2.0 | 0.00 | 0.00 | 0.00 | 17 | 1013.3 |
| 20260507163932 | 89 | 150 | 0.0 | 1.0 | 0.00 | 0.00 | 0.00 | 19 | 1013.2 |
| 20260507163429 | 88 | 75 | 1.0 | 2.0 | 0.00 | 0.00 | 0.00 | 22 | 1013.1 |
| 20260507162926 | 86 | 114 | 1.0 | 3.0 | 0.00 | 0.00 | 0.00 | 20 | 1013.2 |
| 20260507162421 | 87 | 150 | 0.0 | 3.0 | 0.00 | 0.00 | 0.00 | 21 | 1013.3 |
| 20260507161919 | 88 | 43 | 1.0 | 2.0 | 0.00 | 0.00 | 0.00 | 22 | 1013.4 |
| 20260507161415 | 88 | 349 | 0.0 | 2.0 | 0.00 | 0.00 | 0.00 | 20 | 1013.3 |
| 20260507160912 | 87 | 115 | 1.0 | 1.0 | 0.00 | 0.00 | 0.00 | 22 | 1013.4 |
| 20260507160408 | 86 | 104 | 0.0 | 3.0 | 0.00 | 0.00 | 0.00 | 21 | 1013.6 |
| 20260507155904 | 87 | 71 | 0.0 | 2.0 | 0.00 | 0.00 | 0.00 | 22 | 1013.5 |
| 20260507155400 | 87 | 77 | 0.0 | 0.0 | 0.00 | 0.00 | 0.00 | 22 | 1013.7 |
| 20260507154857 | 84 | 126 | 0.0 | 2.0 | 0.00 | 0.00 | 0.00 | 24 | 1013.8 |
| 20260507154354 | 83 | 63 | 0.0 | 2.0 | 0.00 | 0.00 | 0.00 | 23 | 1013.3 |
| 20260507153851 | 84 | 36 | 0.0 | 1.0 | 0.00 | 0.00 | 0.00 | 24 | 1013.4 |
| 20260507153347 | 84 | 270 | 0.0 | 2.0 | 0.00 | 0.00 | 0.00 | 25 | 1013.7 |
| 20260507152844 | 83 | 50 | 0.0 | 2.0 | 0.00 | 0.00 | 0.00 | 26 | 1013.8 |
| 20260507152340 | 83 | 264 | 0.0 | 1.0 | 0.00 | 0.00 | 0.00 | 25 | 1013.7 |
| 20260507151837 | 83 | 287 | 1.0 | 3.0 | 0.00 | 0.00 | 0.00 | 24 | 1013.7 |
| 20260507151333 | 83 | 178 | 0.0 | 1.0 | 0.00 | 0.00 | 0.00 | 25 | 1013.8 |
| 20260507150830 | 83 | 169 | 1.0 | 1.0 | 0.00 | 0.00 | 0.00 | 25 | 1013.6 |
| 20260507150326 | 82 | 324 | 0.0 | 0.0 | 0.00 | 0.00 | 0.00 | 27 | 1013.7 |
| 20260507145823 | 81 | 190 | 0.0 | 0.0 | 0.00 | 0.00 | 0.00 | 27 | 1013.6 |
| 20260507145319 | 78 | 299 | 0.0 | 2.0 | 0.00 | 0.00 | 0.00 | 27 | 1013.5 |
| 20260507144816 | 75 | 124 | 0.0 | 2.0 | 0.00 | 0.00 | 0.00 | 29 | 1013.6 |
| 20260507144314 | 76 | 171 | 0.0 | 0.0 | 0.00 | 0.00 | 0.00 | 28 | 1013.8 |
| 20260507143810 | 76 | 119 | 0.0 | 1.0 | 0.00 | 0.00 | 0.00 | 29 | 1013.5 |
| 20260507143308 | 76 | 84 | 0.0 | 1.0 | 0.00 | 0.00 | 0.00 | 29 | 1013.6 |
| 20260507142803 | 77 | 44 | 0.0 | 0.0 | 0.00 | 0.00 | 0.00 | 30 | 1013.6 |
| 20260507142300 | 78 | 270 | 0.0 | 0.0 | 0.00 | 0.00 | 0.00 | 29 | 1013.6 |
| 20260507141756 | 78 | 257 | 0.0 | 0.0 | 0.00 | 0.00 | 0.00 | 29 | 1013.5 |
| 20260507141254 | 77 | 305 | 0.0 | 0.0 | 0.00 | 0.00 | 0.00 | 29 | 1013.5 |
| 20260507140749 | 76 | 299 | 0.0 | 0.0 | 0.00 | 0.00 | 0.00 | 32 | 1013.5 |
| 20260507140247 | 77 | 261 | 0.0 | 0.0 | 0.00 | 0.00 | 0.00 | 30 | 1013.3 |
| 20260507135744 | 78 | 268 | 0.0 | 1.0 | 0.00 | 0.00 | 0.00 | 29 | 1013.4 |